sensor_id;sensor_type;location;lat;lon;timestamp;P1;durP1;ratioP1;P2;durP2;ratioP2
76346;SDS011;73309;48.818;9.806;2023-12-28T00:00:12;3.23;;;2.10;;
76346;SDS011;73309;48.818;9.806;2023-12-28T00:02:38;2.70;;;2.20;;
76346;SDS011;73309;48.818;9.806;2023-12-28T00:05:04;2.63;;;2.10;;
76346;SDS011;73309;48.818;9.806;2023-12-28T00:07:29;2.70;;;2.03;;
76346;SDS011;73309;48.818;9.806;2023-12-28T00:09:55;3.27;;;2.27;;
76346;SDS011;73309;48.818;9.806;2023-12-28T00:12:21;2.33;;;1.90;;
76346;SDS011;73309;48.818;9.806;2023-12-28T00:14:47;2.30;;;2.10;;
76346;SDS011;73309;48.818;9.806;2023-12-28T00:17:12;2.67;;;2.00;;
76346;SDS011;73309;48.818;9.806;2023-12-28T00:19:37;2.50;;;1.93;;
76346;SDS011;73309;48.818;9.806;2023-12-28T00:22:03;2.03;;;1.83;;
76346;SDS011;73309;48.818;9.806;2023-12-28T00:24:28;3.47;;;1.90;;
76346;SDS011;73309;48.818;9.806;2023-12-28T00:26:54;4.17;;;2.20;;
76346;SDS011;73309;48.818;9.806;2023-12-28T00:29:20;2.83;;;2.00;;
76346;SDS011;73309;48.818;9.806;2023-12-28T00:31:46;2.93;;;2.10;;
76346;SDS011;73309;48.818;9.806;2023-12-28T00:34:11;2.67;;;2.07;;
76346;SDS011;73309;48.818;9.806;2023-12-28T00:36:37;2.53;;;2.23;;
76346;SDS011;73309;48.818;9.806;2023-12-28T00:39:02;2.77;;;1.90;;
76346;SDS011;73309;48.818;9.806;2023-12-28T00:41:27;3.70;;;2.10;;
76346;SDS011;73309;48.818;9.806;2023-12-28T00:43:53;3.07;;;2.10;;
76346;SDS011;73309;48.818;9.806;2023-12-28T00:46:19;2.40;;;2.20;;
76346;SDS011;73309;48.818;9.806;2023-12-28T00:48:45;2.20;;;2.00;;
76346;SDS011;73309;48.818;9.806;2023-12-28T00:51:10;3.90;;;2.37;;
76346;SDS011;73309;48.818;9.806;2023-12-28T00:53:36;2.57;;;2.30;;
76346;SDS011;73309;48.818;9.806;2023-12-28T00:56:01;2.53;;;1.67;;
76346;SDS011;73309;48.818;9.806;2023-12-28T00:58:26;2.80;;;2.10;;
76346;SDS011;73309;48.818;9.806;2023-12-28T01:00:52;3.50;;;2.40;;
76346;SDS011;73309;48.818;9.806;2023-12-28T01:03:18;2.67;;;2.00;;
76346;SDS011;73309;48.818;9.806;2023-12-28T01:05:44;3.10;;;2.17;;
76346;SDS011;73309;48.818;9.806;2023-12-28T01:08:09;2.80;;;2.20;;
76346;SDS011;73309;48.818;9.806;2023-12-28T01:10:35;2.43;;;2.23;;
76346;SDS011;73309;48.818;9.806;2023-12-28T01:13:00;2.40;;;2.13;;
76346;SDS011;73309;48.818;9.806;2023-12-28T01:15:25;3.50;;;2.30;;
76346;SDS011;73309;48.818;9.806;2023-12-28T01:17:51;3.17;;;2.30;;
76346;SDS011;73309;48.818;9.806;2023-12-28T01:20:17;2.57;;;2.37;;
76346;SDS011;73309;48.818;9.806;2023-12-28T01:22:43;3.67;;;2.30;;
76346;SDS011;73309;48.818;9.806;2023-12-28T01:25:08;2.63;;;2.00;;
76346;SDS011;73309;48.818;9.806;2023-12-28T01:27:34;2.37;;;2.17;;
76346;SDS011;73309;48.818;9.806;2023-12-28T01:29:59;2.63;;;2.20;;
76346;SDS011;73309;48.818;9.806;2023-12-28T01:32:24;2.87;;;2.17;;
76346;SDS011;73309;48.818;9.806;2023-12-28T01:34:50;2.60;;;2.07;;
76346;SDS011;73309;48.818;9.806;2023-12-28T01:37:16;3.13;;;1.90;;
76346;SDS011;73309;48.818;9.806;2023-12-28T01:39:42;2.73;;;2.23;;
76346;SDS011;73309;48.818;9.806;2023-12-28T01:42:07;2.67;;;2.20;;
76346;SDS011;73309;48.818;9.806;2023-12-28T01:44:33;2.90;;;2.40;;
76346;SDS011;73309;48.818;9.806;2023-12-28T01:46:58;2.63;;;2.13;;
76346;SDS011;73309;48.818;9.806;2023-12-28T01:49:24;2.37;;;2.17;;
76346;SDS011;73309;48.818;9.806;2023-12-28T01:51:50;3.23;;;2.10;;
76346;SDS011;73309;48.818;9.806;2023-12-28T01:54:17;2.93;;;2.10;;
76346;SDS011;73309;48.818;9.806;2023-12-28T01:56:43;2.80;;;2.20;;
76346;SDS011;73309;48.818;9.806;2023-12-28T01:59:09;2.67;;;2.27;;
76346;SDS011;73309;48.818;9.806;2023-12-28T02:01:35;2.27;;;2.00;;
76346;SDS011;73309;48.818;9.806;2023-12-28T02:04:00;2.40;;;2.10;;
76346;SDS011;73309;48.818;9.806;2023-12-28T02:06:26;2.63;;;2.20;;
76346;SDS011;73309;48.818;9.806;2023-12-28T02:08:51;2.50;;;2.27;;
76346;SDS011;73309;48.818;9.806;2023-12-28T02:11:18;3.00;;;2.17;;
76346;SDS011;73309;48.818;9.806;2023-12-28T02:13:44;2.23;;;2.03;;
76346;SDS011;73309;48.818;9.806;2023-12-28T02:16:11;2.27;;;2.00;;
76346;SDS011;73309;48.818;9.806;2023-12-28T02:18:41;2.40;;;2.13;;
76346;SDS011;73309;48.818;9.806;2023-12-28T02:21:08;2.17;;;1.90;;
76346;SDS011;73309;48.818;9.806;2023-12-28T02:23:34;2.30;;;2.10;;
76346;SDS011;73309;48.818;9.806;2023-12-28T02:26:01;2.50;;;2.30;;
76346;SDS011;73309;48.818;9.806;2023-12-28T02:28:26;2.30;;;2.10;;
76346;SDS011;73309;48.818;9.806;2023-12-28T02:30:52;2.00;;;1.80;;
76346;SDS011;73309;48.818;9.806;2023-12-28T02:33:18;2.20;;;2.00;;
76346;SDS011;73309;48.818;9.806;2023-12-28T02:35:51;3.27;;;2.27;;
76346;SDS011;73309;48.818;9.806;2023-12-28T02:38:20;2.90;;;2.23;;
76346;SDS011;73309;48.818;9.806;2023-12-28T02:40:48;2.70;;;2.10;;
76346;SDS011;73309;48.818;9.806;2023-12-28T02:43:15;2.77;;;2.00;;
76346;SDS011;73309;48.818;9.806;2023-12-28T02:45:41;2.63;;;2.43;;
76346;SDS011;73309;48.818;9.806;2023-12-28T02:48:07;2.27;;;2.00;;
76346;SDS011;73309;48.818;9.806;2023-12-28T02:50:33;2.23;;;2.03;;
76346;SDS011;73309;48.818;9.806;2023-12-28T02:52:59;2.70;;;2.30;;
76346;SDS011;73309;48.818;9.806;2023-12-28T02:55:24;2.80;;;2.23;;
76346;SDS011;73309;48.818;9.806;2023-12-28T02:57:50;2.40;;;2.20;;
76346;SDS011;73309;48.818;9.806;2023-12-28T03:00:18;3.47;;;2.30;;
76346;SDS011;73309;48.818;9.806;2023-12-28T03:02:43;2.30;;;2.10;;
76346;SDS011;73309;48.818;9.806;2023-12-28T03:05:09;2.57;;;2.30;;
76346;SDS011;73309;48.818;9.806;2023-12-28T03:07:34;2.30;;;2.10;;
76346;SDS011;73309;48.818;9.806;2023-12-28T03:10:00;2.53;;;2.23;;
76346;SDS011;73309;48.818;9.806;2023-12-28T03:12:26;2.33;;;2.13;;
76346;SDS011;73309;48.818;9.806;2023-12-28T03:14:52;2.50;;;2.20;;
76346;SDS011;73309;48.818;9.806;2023-12-28T03:17:19;2.30;;;2.10;;
76346;SDS011;73309;48.818;9.806;2023-12-28T03:19:44;3.00;;;2.27;;
76346;SDS011;73309;48.818;9.806;2023-12-28T03:22:10;2.27;;;2.07;;
76346;SDS011;73309;48.818;9.806;2023-12-28T03:24:36;2.20;;;2.00;;
76346;SDS011;73309;48.818;9.806;2023-12-28T03:27:01;2.70;;;2.27;;
76346;SDS011;73309;48.818;9.806;2023-12-28T03:29:27;2.37;;;2.10;;
76346;SDS011;73309;48.818;9.806;2023-12-28T03:31:53;2.90;;;2.00;;
76346;SDS011;73309;48.818;9.806;2023-12-28T03:34:19;2.20;;;2.00;;
76346;SDS011;73309;48.818;9.806;2023-12-28T03:36:45;2.20;;;2.00;;
76346;SDS011;73309;48.818;9.806;2023-12-28T03:39:10;2.00;;;1.80;;
76346;SDS011;73309;48.818;9.806;2023-12-28T03:41:35;2.20;;;2.00;;
76346;SDS011;73309;48.818;9.806;2023-12-28T03:44:01;2.60;;;2.20;;
76346;SDS011;73309;48.818;9.806;2023-12-28T03:46:26;3.07;;;2.00;;
76346;SDS011;73309;48.818;9.806;2023-12-28T03:48:52;2.53;;;2.27;;
76346;SDS011;73309;48.818;9.806;2023-12-28T03:51:18;2.30;;;2.10;;
76346;SDS011;73309;48.818;9.806;2023-12-28T03:53:44;2.70;;;2.20;;
76346;SDS011;73309;48.818;9.806;2023-12-28T03:56:17;2.37;;;2.17;;
76346;SDS011;73309;48.818;9.806;2023-12-28T03:58:43;2.20;;;2.00;;
76346;SDS011;73309;48.818;9.806;2023-12-28T04:01:09;3.00;;;2.40;;
76346;SDS011;73309;48.818;9.806;2023-12-28T04:03:34;2.03;;;1.83;;
76346;SDS011;73309;48.818;9.806;2023-12-28T04:06:00;2.27;;;1.90;;
76346;SDS011;73309;48.818;9.806;2023-12-28T04:08:27;3.23;;;2.23;;
76346;SDS011;73309;48.818;9.806;2023-12-28T04:10:52;3.03;;;2.13;;
76346;SDS011;73309;48.818;9.806;2023-12-28T04:13:17;2.20;;;2.00;;
76346;SDS011;73309;48.818;9.806;2023-12-28T04:15:43;2.87;;;2.10;;
76346;SDS011;73309;48.818;9.806;2023-12-28T04:18:08;2.43;;;2.10;;
76346;SDS011;73309;48.818;9.806;2023-12-28T04:20:33;2.10;;;1.90;;
76346;SDS011;73309;48.818;9.806;2023-12-28T04:22:59;2.20;;;1.67;;
76346;SDS011;73309;48.818;9.806;2023-12-28T04:25:26;2.67;;;2.00;;
76346;SDS011;73309;48.818;9.806;2023-12-28T04:27:51;2.77;;;1.80;;
76346;SDS011;73309;48.818;9.806;2023-12-28T04:30:17;2.07;;;1.87;;
76346;SDS011;73309;48.818;9.806;2023-12-28T04:32:42;2.90;;;2.00;;
76346;SDS011;73309;48.818;9.806;2023-12-28T04:35:08;2.30;;;2.10;;
76346;SDS011;73309;48.818;9.806;2023-12-28T04:37:33;2.67;;;2.10;;
76346;SDS011;73309;48.818;9.806;2023-12-28T04:39:58;2.83;;;1.90;;
76346;SDS011;73309;48.818;9.806;2023-12-28T04:42:25;1.83;;;1.63;;
76346;SDS011;73309;48.818;9.806;2023-12-28T04:44:51;2.23;;;2.00;;
76346;SDS011;73309;48.818;9.806;2023-12-28T04:47:16;2.43;;;2.07;;
76346;SDS011;73309;48.818;9.806;2023-12-28T04:49:42;2.20;;;1.80;;
76346;SDS011;73309;48.818;9.806;2023-12-28T04:52:07;2.73;;;2.10;;
76346;SDS011;73309;48.818;9.806;2023-12-28T04:54:32;2.33;;;2.10;;
76346;SDS011;73309;48.818;9.806;2023-12-28T04:56:58;2.80;;;2.03;;
76346;SDS011;73309;48.818;9.806;2023-12-28T04:59:25;2.37;;;2.10;;
76346;SDS011;73309;48.818;9.806;2023-12-28T05:01:50;2.03;;;1.83;;
76346;SDS011;73309;48.818;9.806;2023-12-28T05:04:15;2.00;;;1.80;;
76346;SDS011;73309;48.818;9.806;2023-12-28T05:06:41;2.77;;;1.90;;
76346;SDS011;73309;48.818;9.806;2023-12-28T05:09:06;2.20;;;1.97;;
76346;SDS011;73309;48.818;9.806;2023-12-28T05:11:31;2.13;;;1.93;;
76346;SDS011;73309;48.818;9.806;2023-12-28T05:13:57;2.40;;;1.90;;
76346;SDS011;73309;48.818;9.806;2023-12-28T05:16:24;2.63;;;2.00;;
76346;SDS011;73309;48.818;9.806;2023-12-28T05:18:49;2.20;;;2.00;;
76346;SDS011;73309;48.818;9.806;2023-12-28T05:21:14;3.03;;;2.23;;
76346;SDS011;73309;48.818;9.806;2023-12-28T05:23:40;2.13;;;1.93;;
76346;SDS011;73309;48.818;9.806;2023-12-28T05:26:06;2.20;;;2.00;;
76346;SDS011;73309;48.818;9.806;2023-12-28T05:28:31;1.97;;;1.80;;
76346;SDS011;73309;48.818;9.806;2023-12-28T05:30:57;2.10;;;1.80;;
76346;SDS011;73309;48.818;9.806;2023-12-28T05:33:23;2.20;;;2.00;;
76346;SDS011;73309;48.818;9.806;2023-12-28T05:35:49;3.67;;;1.93;;
76346;SDS011;73309;48.818;9.806;2023-12-28T05:38:14;2.33;;;1.90;;
76346;SDS011;73309;48.818;9.806;2023-12-28T05:40:39;2.00;;;1.80;;
76346;SDS011;73309;48.818;9.806;2023-12-28T05:43:05;2.77;;;2.13;;
76346;SDS011;73309;48.818;9.806;2023-12-28T05:45:30;2.40;;;1.77;;
76346;SDS011;73309;48.818;9.806;2023-12-28T05:47:56;2.10;;;1.70;;
76346;SDS011;73309;48.818;9.806;2023-12-28T05:50:22;1.87;;;1.60;;
76346;SDS011;73309;48.818;9.806;2023-12-28T05:52:48;2.40;;;1.83;;
76346;SDS011;73309;48.818;9.806;2023-12-28T05:55:13;2.20;;;1.97;;
76346;SDS011;73309;48.818;9.806;2023-12-28T05:57:39;2.03;;;1.87;;
76346;SDS011;73309;48.818;9.806;2023-12-28T06:00:05;2.00;;;1.87;;
76346;SDS011;73309;48.818;9.806;2023-12-28T06:02:31;2.30;;;2.07;;
76346;SDS011;73309;48.818;9.806;2023-12-28T06:04:56;2.13;;;1.90;;
76346;SDS011;73309;48.818;9.806;2023-12-28T06:07:23;2.03;;;1.83;;
76346;SDS011;73309;48.818;9.806;2023-12-28T06:09:49;2.00;;;1.80;;
76346;SDS011;73309;48.818;9.806;2023-12-28T06:12:14;1.93;;;1.73;;
76346;SDS011;73309;48.818;9.806;2023-12-28T06:14:39;2.17;;;1.87;;
76346;SDS011;73309;48.818;9.806;2023-12-28T06:17:05;1.80;;;1.67;;
76346;SDS011;73309;48.818;9.806;2023-12-28T06:19:30;2.77;;;2.00;;
76346;SDS011;73309;48.818;9.806;2023-12-28T06:21:55;1.90;;;1.70;;
76346;SDS011;73309;48.818;9.806;2023-12-28T06:24:22;2.30;;;1.90;;
76346;SDS011;73309;48.818;9.806;2023-12-28T06:26:48;2.07;;;1.87;;
76346;SDS011;73309;48.818;9.806;2023-12-28T06:29:13;2.30;;;1.70;;
76346;SDS011;73309;48.818;9.806;2023-12-28T06:31:39;2.53;;;1.73;;
76346;SDS011;73309;48.818;9.806;2023-12-28T06:34:04;2.03;;;1.80;;
76346;SDS011;73309;48.818;9.806;2023-12-28T06:36:30;2.03;;;1.83;;
76346;SDS011;73309;48.818;9.806;2023-12-28T06:38:55;2.10;;;1.77;;
76346;SDS011;73309;48.818;9.806;2023-12-28T06:41:22;2.00;;;1.80;;
76346;SDS011;73309;48.818;9.806;2023-12-28T06:43:47;1.90;;;1.70;;
76346;SDS011;73309;48.818;9.806;2023-12-28T06:46:13;2.00;;;1.87;;
76346;SDS011;73309;48.818;9.806;2023-12-28T06:48:38;1.70;;;1.60;;
76346;SDS011;73309;48.818;9.806;2023-12-28T06:51:04;2.40;;;2.10;;
76346;SDS011;73309;48.818;9.806;2023-12-28T06:53:29;2.00;;;1.80;;
76346;SDS011;73309;48.818;9.806;2023-12-28T06:55:55;1.83;;;1.70;;
76346;SDS011;73309;48.818;9.806;2023-12-28T06:58:22;2.33;;;1.90;;
76346;SDS011;73309;48.818;9.806;2023-12-28T07:00:47;2.17;;;1.70;;
76346;SDS011;73309;48.818;9.806;2023-12-28T07:03:12;2.10;;;1.90;;
76346;SDS011;73309;48.818;9.806;2023-12-28T07:05:38;2.33;;;1.87;;
76346;SDS011;73309;48.818;9.806;2023-12-28T07:08:03;1.83;;;1.70;;
76346;SDS011;73309;48.818;9.806;2023-12-28T07:10:29;2.50;;;1.90;;
76346;SDS011;73309;48.818;9.806;2023-12-28T07:12:54;1.83;;;1.60;;
76346;SDS011;73309;48.818;9.806;2023-12-28T07:15:21;1.90;;;1.77;;
76346;SDS011;73309;48.818;9.806;2023-12-28T07:17:47;1.80;;;1.70;;
76346;SDS011;73309;48.818;9.806;2023-12-28T07:20:12;1.80;;;1.70;;
76346;SDS011;73309;48.818;9.806;2023-12-28T07:22:38;1.80;;;1.70;;
76346;SDS011;73309;48.818;9.806;2023-12-28T07:25:04;2.27;;;1.80;;
76346;SDS011;73309;48.818;9.806;2023-12-28T07:27:30;1.97;;;1.70;;
76346;SDS011;73309;48.818;9.806;2023-12-28T07:29:55;1.87;;;1.67;;
76346;SDS011;73309;48.818;9.806;2023-12-28T07:32:22;1.77;;;1.60;;
76346;SDS011;73309;48.818;9.806;2023-12-28T07:34:48;1.70;;;1.60;;
76346;SDS011;73309;48.818;9.806;2023-12-28T07:37:13;1.97;;;1.77;;
76346;SDS011;73309;48.818;9.806;2023-12-28T07:39:40;1.90;;;1.60;;
76346;SDS011;73309;48.818;9.806;2023-12-28T07:42:05;2.77;;;1.70;;
76346;SDS011;73309;48.818;9.806;2023-12-28T07:44:31;2.23;;;1.83;;
76346;SDS011;73309;48.818;9.806;2023-12-28T07:46:56;1.63;;;1.53;;
76346;SDS011;73309;48.818;9.806;2023-12-28T07:49:23;1.90;;;1.70;;
76346;SDS011;73309;48.818;9.806;2023-12-28T07:51:48;1.80;;;1.70;;
76346;SDS011;73309;48.818;9.806;2023-12-28T07:54:14;1.87;;;1.67;;
76346;SDS011;73309;48.818;9.806;2023-12-28T07:56:39;2.30;;;1.90;;
76346;SDS011;73309;48.818;9.806;2023-12-28T07:59:04;2.00;;;1.80;;
76346;SDS011;73309;48.818;9.806;2023-12-28T08:01:30;2.03;;;1.80;;
76346;SDS011;73309;48.818;9.806;2023-12-28T08:03:55;1.73;;;1.60;;
76346;SDS011;73309;48.818;9.806;2023-12-28T08:06:22;2.10;;;1.90;;
76346;SDS011;73309;48.818;9.806;2023-12-28T08:08:47;1.80;;;1.70;;
76346;SDS011;73309;48.818;9.806;2023-12-28T08:11:13;2.00;;;1.73;;
76346;SDS011;73309;48.818;9.806;2023-12-28T08:13:38;1.97;;;1.63;;
76346;SDS011;73309;48.818;9.806;2023-12-28T08:16:04;1.87;;;1.67;;
76346;SDS011;73309;48.818;9.806;2023-12-28T08:18:30;2.20;;;1.80;;
76346;SDS011;73309;48.818;9.806;2023-12-28T08:20:55;2.00;;;1.80;;
76346;SDS011;73309;48.818;9.806;2023-12-28T08:23:22;2.03;;;1.83;;
76346;SDS011;73309;48.818;9.806;2023-12-28T08:25:47;2.10;;;1.90;;
76346;SDS011;73309;48.818;9.806;2023-12-28T08:28:12;2.30;;;1.80;;
76346;SDS011;73309;48.818;9.806;2023-12-28T08:30:38;1.93;;;1.60;;
76346;SDS011;73309;48.818;9.806;2023-12-28T08:33:04;2.43;;;1.87;;
76346;SDS011;73309;48.818;9.806;2023-12-28T08:35:29;2.00;;;1.70;;
76346;SDS011;73309;48.818;9.806;2023-12-28T08:37:54;2.17;;;1.97;;
76346;SDS011;73309;48.818;9.806;2023-12-28T08:40:21;2.50;;;1.70;;
76346;SDS011;73309;48.818;9.806;2023-12-28T08:42:46;1.90;;;1.60;;
76346;SDS011;73309;48.818;9.806;2023-12-28T08:45:12;1.77;;;1.63;;
76346;SDS011;73309;48.818;9.806;2023-12-28T08:47:37;2.43;;;1.90;;
76346;SDS011;73309;48.818;9.806;2023-12-28T08:50:03;2.17;;;1.97;;
76346;SDS011;73309;48.818;9.806;2023-12-28T08:52:29;2.07;;;1.90;;
76346;SDS011;73309;48.818;9.806;2023-12-28T08:54:54;1.93;;;1.73;;
76346;SDS011;73309;48.818;9.806;2023-12-28T08:57:21;2.40;;;1.87;;
76346;SDS011;73309;48.818;9.806;2023-12-28T08:59:46;2.10;;;1.90;;
76346;SDS011;73309;48.818;9.806;2023-12-28T09:02:12;2.40;;;1.90;;
76346;SDS011;73309;48.818;9.806;2023-12-28T09:04:37;2.10;;;1.80;;
76346;SDS011;73309;48.818;9.806;2023-12-28T09:07:03;2.13;;;1.80;;
76346;SDS011;73309;48.818;9.806;2023-12-28T09:09:28;2.07;;;1.73;;
76346;SDS011;73309;48.818;9.806;2023-12-28T09:11:54;2.90;;;1.80;;
76346;SDS011;73309;48.818;9.806;2023-12-28T09:14:21;2.67;;;2.00;;
76346;SDS011;73309;48.818;9.806;2023-12-28T09:16:47;1.70;;;1.60;;
76346;SDS011;73309;48.818;9.806;2023-12-28T09:19:13;2.87;;;1.80;;
76346;SDS011;73309;48.818;9.806;2023-12-28T09:21:38;2.13;;;1.90;;
76346;SDS011;73309;48.818;9.806;2023-12-28T09:24:03;2.00;;;1.80;;
76346;SDS011;73309;48.818;9.806;2023-12-28T09:26:29;2.40;;;1.80;;
76346;SDS011;73309;48.818;9.806;2023-12-28T09:28:54;2.03;;;1.67;;
76346;SDS011;73309;48.818;9.806;2023-12-28T09:31:21;2.97;;;1.80;;
76346;SDS011;73309;48.818;9.806;2023-12-28T09:33:47;2.17;;;1.80;;
76346;SDS011;73309;48.818;9.806;2023-12-28T09:36:12;2.47;;;1.90;;
76346;SDS011;73309;48.818;9.806;2023-12-28T09:38:37;1.77;;;1.67;;
76346;SDS011;73309;48.818;9.806;2023-12-28T09:41:04;1.70;;;1.60;;
76346;SDS011;73309;48.818;9.806;2023-12-28T09:43:37;1.83;;;1.70;;
76346;SDS011;73309;48.818;9.806;2023-12-28T09:46:06;1.77;;;1.67;;
76346;SDS011;73309;48.818;9.806;2023-12-28T09:48:33;2.17;;;1.90;;
76346;SDS011;73309;48.818;9.806;2023-12-28T09:50:59;2.90;;;2.07;;
76346;SDS011;73309;48.818;9.806;2023-12-28T09:53:25;2.60;;;1.77;;
76346;SDS011;73309;48.818;9.806;2023-12-28T09:55:51;2.03;;;1.70;;
76346;SDS011;73309;48.818;9.806;2023-12-28T09:58:17;2.50;;;1.80;;
76346;SDS011;73309;48.818;9.806;2023-12-28T10:00:44;2.63;;;1.90;;
76346;SDS011;73309;48.818;9.806;2023-12-28T10:03:10;2.20;;;1.70;;
76346;SDS011;73309;48.818;9.806;2023-12-28T10:05:38;3.60;;;1.70;;
76346;SDS011;73309;48.818;9.806;2023-12-28T10:08:05;2.00;;;1.80;;
76346;SDS011;73309;48.818;9.806;2023-12-28T10:10:31;2.20;;;1.70;;
76346;SDS011;73309;48.818;9.806;2023-12-28T10:12:56;2.87;;;2.57;;
76346;SDS011;73309;48.818;9.806;2023-12-28T10:15:21;5.20;;;2.00;;
76346;SDS011;73309;48.818;9.806;2023-12-28T10:17:47;2.80;;;1.97;;
76346;SDS011;73309;48.818;9.806;2023-12-28T10:20:13;2.07;;;1.77;;
76346;SDS011;73309;48.818;9.806;2023-12-28T10:22:40;2.43;;;1.67;;
76346;SDS011;73309;48.818;9.806;2023-12-28T10:25:06;2.97;;;1.80;;
76346;SDS011;73309;48.818;9.806;2023-12-28T10:27:32;2.20;;;2.00;;
76346;SDS011;73309;48.818;9.806;2023-12-28T10:30:03;2.33;;;1.93;;
76346;SDS011;73309;48.818;9.806;2023-12-28T10:32:29;3.30;;;2.00;;
76346;SDS011;73309;48.818;9.806;2023-12-28T10:34:55;3.30;;;1.80;;
76346;SDS011;73309;48.818;9.806;2023-12-28T10:37:20;1.70;;;1.60;;
76346;SDS011;73309;48.818;9.806;2023-12-28T10:39:47;1.83;;;1.60;;
76346;SDS011;73309;48.818;9.806;2023-12-28T10:42:13;3.87;;;1.90;;
76346;SDS011;73309;48.818;9.806;2023-12-28T10:44:47;2.57;;;1.80;;
76346;SDS011;73309;48.818;9.806;2023-12-28T10:47:17;2.10;;;1.87;;
76346;SDS011;73309;48.818;9.806;2023-12-28T10:49:45;2.43;;;1.63;;
76346;SDS011;73309;48.818;9.806;2023-12-28T10:52:13;2.07;;;1.87;;
76346;SDS011;73309;48.818;9.806;2023-12-28T10:54:44;2.00;;;1.80;;
76346;SDS011;73309;48.818;9.806;2023-12-28T10:57:22;1.77;;;1.67;;
76346;SDS011;73309;48.818;9.806;2023-12-28T10:59:53;2.87;;;1.70;;
76346;SDS011;73309;48.818;9.806;2023-12-28T11:02:26;2.00;;;1.80;;
76346;SDS011;73309;48.818;9.806;2023-12-28T11:04:53;2.57;;;1.70;;
76346;SDS011;73309;48.818;9.806;2023-12-28T11:07:20;2.40;;;1.90;;
76346;SDS011;73309;48.818;9.806;2023-12-28T11:09:47;2.43;;;1.50;;
76346;SDS011;73309;48.818;9.806;2023-12-28T11:12:14;2.10;;;1.67;;
76346;SDS011;73309;48.818;9.806;2023-12-28T11:14:41;2.43;;;1.70;;
76346;SDS011;73309;48.818;9.806;2023-12-28T11:17:07;1.93;;;1.73;;
76346;SDS011;73309;48.818;9.806;2023-12-28T11:19:36;2.03;;;1.63;;
76346;SDS011;73309;48.818;9.806;2023-12-28T11:22:02;2.07;;;1.83;;
76346;SDS011;73309;48.818;9.806;2023-12-28T11:24:29;3.83;;;1.60;;
76346;SDS011;73309;48.818;9.806;2023-12-28T11:26:56;1.90;;;1.60;;
76346;SDS011;73309;48.818;9.806;2023-12-28T11:29:22;2.37;;;1.70;;
76346;SDS011;73309;48.818;9.806;2023-12-28T11:31:50;2.47;;;1.70;;
76346;SDS011;73309;48.818;9.806;2023-12-28T11:34:16;3.03;;;2.27;;
76346;SDS011;73309;48.818;9.806;2023-12-28T11:36:43;3.63;;;1.50;;
76346;SDS011;73309;48.818;9.806;2023-12-28T11:39:11;2.23;;;1.80;;
76346;SDS011;73309;48.818;9.806;2023-12-28T11:41:44;2.17;;;1.80;;
76346;SDS011;73309;48.818;9.806;2023-12-28T11:44:11;2.03;;;1.83;;
76346;SDS011;73309;48.818;9.806;2023-12-28T11:46:36;2.10;;;1.90;;
76346;SDS011;73309;48.818;9.806;2023-12-28T11:49:04;3.03;;;2.50;;
76346;SDS011;73309;48.818;9.806;2023-12-28T11:51:30;3.23;;;2.30;;
76346;SDS011;73309;48.818;9.806;2023-12-28T11:53:55;4.97;;;2.60;;
76346;SDS011;73309;48.818;9.806;2023-12-28T11:56:21;2.93;;;2.20;;
76346;SDS011;73309;48.818;9.806;2023-12-28T11:58:46;4.57;;;2.30;;
76346;SDS011;73309;48.818;9.806;2023-12-28T12:01:13;2.63;;;2.33;;
76346;SDS011;73309;48.818;9.806;2023-12-28T12:03:39;3.27;;;2.40;;
76346;SDS011;73309;48.818;9.806;2023-12-28T12:06:04;2.57;;;2.30;;
76346;SDS011;73309;48.818;9.806;2023-12-28T12:08:30;3.13;;;2.30;;
76346;SDS011;73309;48.818;9.806;2023-12-28T12:11:01;2.23;;;2.03;;
76346;SDS011;73309;48.818;9.806;2023-12-28T12:13:27;3.20;;;2.20;;
76346;SDS011;73309;48.818;9.806;2023-12-28T12:15:53;2.80;;;2.50;;
76346;SDS011;73309;48.818;9.806;2023-12-28T12:18:19;2.83;;;2.27;;
76346;SDS011;73309;48.818;9.806;2023-12-28T12:20:45;3.20;;;2.50;;
76346;SDS011;73309;48.818;9.806;2023-12-28T12:23:10;6.23;;;2.50;;
76346;SDS011;73309;48.818;9.806;2023-12-28T12:25:36;4.53;;;2.50;;
76346;SDS011;73309;48.818;9.806;2023-12-28T12:28:01;2.83;;;2.33;;
76346;SDS011;73309;48.818;9.806;2023-12-28T12:30:27;3.70;;;2.40;;
76346;SDS011;73309;48.818;9.806;2023-12-28T12:32:52;2.97;;;2.50;;
76346;SDS011;73309;48.818;9.806;2023-12-28T12:35:20;2.90;;;2.30;;
76346;SDS011;73309;48.818;9.806;2023-12-28T12:37:46;2.70;;;2.50;;
76346;SDS011;73309;48.818;9.806;2023-12-28T12:40:11;2.97;;;2.60;;
76346;SDS011;73309;48.818;9.806;2023-12-28T12:42:37;3.40;;;2.50;;
76346;SDS011;73309;48.818;9.806;2023-12-28T12:45:02;3.30;;;2.30;;
76346;SDS011;73309;48.818;9.806;2023-12-28T12:47:31;2.87;;;2.37;;
76346;SDS011;73309;48.818;9.806;2023-12-28T12:49:57;3.40;;;2.40;;
76346;SDS011;73309;48.818;9.806;2023-12-28T12:52:24;3.47;;;2.30;;
76346;SDS011;73309;48.818;9.806;2023-12-28T12:54:53;4.07;;;2.30;;
76346;SDS011;73309;48.818;9.806;2023-12-28T12:57:19;4.03;;;2.60;;
76346;SDS011;73309;48.818;9.806;2023-12-28T12:59:45;3.97;;;2.33;;
76346;SDS011;73309;48.818;9.806;2023-12-28T13:02:10;3.47;;;2.40;;
76346;SDS011;73309;48.818;9.806;2023-12-28T13:04:37;4.57;;;2.47;;
76346;SDS011;73309;48.818;9.806;2023-12-28T13:07:03;4.47;;;2.90;;
76346;SDS011;73309;48.818;9.806;2023-12-28T13:09:30;4.00;;;2.60;;
76346;SDS011;73309;48.818;9.806;2023-12-28T13:11:55;4.77;;;2.43;;
76346;SDS011;73309;48.818;9.806;2023-12-28T13:14:21;4.03;;;2.63;;
76346;SDS011;73309;48.818;9.806;2023-12-28T13:16:46;4.67;;;2.20;;
76346;SDS011;73309;48.818;9.806;2023-12-28T13:19:12;2.77;;;2.00;;
76346;SDS011;73309;48.818;9.806;2023-12-28T13:21:37;3.83;;;2.53;;
76346;SDS011;73309;48.818;9.806;2023-12-28T13:24:02;5.53;;;2.37;;
76346;SDS011;73309;48.818;9.806;2023-12-28T13:26:29;4.10;;;2.67;;
76346;SDS011;73309;48.818;9.806;2023-12-28T13:28:55;4.97;;;2.47;;
76346;SDS011;73309;48.818;9.806;2023-12-28T13:31:20;4.60;;;2.50;;
76346;SDS011;73309;48.818;9.806;2023-12-28T13:33:45;3.43;;;2.60;;
76346;SDS011;73309;48.818;9.806;2023-12-28T13:36:11;7.13;;;2.50;;
76346;SDS011;73309;48.818;9.806;2023-12-28T13:38:36;4.07;;;2.33;;
76346;SDS011;73309;48.818;9.806;2023-12-28T13:41:02;5.77;;;2.67;;
76346;SDS011;73309;48.818;9.806;2023-12-28T13:43:29;4.27;;;2.60;;
76346;SDS011;73309;48.818;9.806;2023-12-28T13:45:54;3.10;;;2.40;;
76346;SDS011;73309;48.818;9.806;2023-12-28T13:48:20;4.37;;;2.77;;
76346;SDS011;73309;48.818;9.806;2023-12-28T13:50:45;4.40;;;2.60;;
76346;SDS011;73309;48.818;9.806;2023-12-28T13:53:10;2.80;;;2.30;;
76346;SDS011;73309;48.818;9.806;2023-12-28T13:55:36;3.80;;;2.47;;
76346;SDS011;73309;48.818;9.806;2023-12-28T13:58:01;4.63;;;2.67;;
76346;SDS011;73309;48.818;9.806;2023-12-28T14:00:28;2.87;;;2.47;;
76346;SDS011;73309;48.818;9.806;2023-12-28T14:02:53;3.47;;;2.63;;
76346;SDS011;73309;48.818;9.806;2023-12-28T14:05:19;3.07;;;2.17;;
76346;SDS011;73309;48.818;9.806;2023-12-28T14:07:44;5.23;;;2.47;;
76346;SDS011;73309;48.818;9.806;2023-12-28T14:10:09;3.63;;;2.40;;
76346;SDS011;73309;48.818;9.806;2023-12-28T14:12:35;2.50;;;2.20;;
76346;SDS011;73309;48.818;9.806;2023-12-28T14:15:00;2.83;;;2.53;;
76346;SDS011;73309;48.818;9.806;2023-12-28T14:17:27;2.70;;;2.37;;
76346;SDS011;73309;48.818;9.806;2023-12-28T14:19:52;3.33;;;2.40;;
76346;SDS011;73309;48.818;9.806;2023-12-28T14:22:18;3.73;;;2.47;;
76346;SDS011;73309;48.818;9.806;2023-12-28T14:24:44;3.23;;;2.63;;
76346;SDS011;73309;48.818;9.806;2023-12-28T14:27:10;3.40;;;2.33;;
76346;SDS011;73309;48.818;9.806;2023-12-28T14:29:36;2.50;;;2.20;;
76346;SDS011;73309;48.818;9.806;2023-12-28T14:32:02;2.93;;;2.50;;
76346;SDS011;73309;48.818;9.806;2023-12-28T14:34:29;2.63;;;2.27;;
76346;SDS011;73309;48.818;9.806;2023-12-28T14:36:55;2.27;;;2.07;;
76346;SDS011;73309;48.818;9.806;2023-12-28T15:06:54;2.50;;;2.30;;